createdAt,value
2018-10-02T00:02:25.515Z,98680.25
2018-10-02T00:04:55.056Z,98686.95
2018-10-02T00:07:24.585Z,98682.66
2018-10-02T00:09:54.119Z,98686.39
2018-10-02T00:12:28.698Z,98686.04
2018-10-02T00:14:58.227Z,98691.25
2018-10-02T00:17:28.001Z,98687.26
2018-10-02T00:19:57.539Z,98692.32
2018-10-02T00:22:27.066Z,98690.05
2018-10-02T00:24:56.771Z,98684.16
2018-10-02T00:27:26.627Z,98694.29
2018-10-02T00:29:56.151Z,98693.13
2018-10-02T00:32:25.853Z,98692.88
2018-10-02T00:34:55.527Z,98684.44
2018-10-02T00:37:25.083Z,98687.64
2018-10-02T00:39:54.613Z,98689.14
2018-10-02T00:42:24.191Z,98688.45
2018-10-02T00:44:54.039Z,98691.71
2018-10-02T00:47:23.582Z,98693.76
2018-10-02T00:49:53.191Z,98689.33
2018-10-02T00:52:22.735Z,98692.28
2018-10-02T00:54:52.248Z,98693.76
2018-10-02T00:57:21.788Z,98696.28
2018-10-02T00:59:51.294Z,98695.36
2018-10-02T01:02:20.878Z,98700.73
2018-10-02T01:04:50.386Z,98701.30
2018-10-02T01:07:20.283Z,98702.95
2018-10-02T01:09:49.803Z,98706.03
2018-10-02T01:12:19.308Z,98704.34
2018-10-02T01:14:48.849Z,98708.72
2018-10-02T01:17:18.359Z,98705.56
2018-10-02T01:19:47.973Z,98706.34
2018-10-02T01:22:17.487Z,98695.62
2018-10-02T01:24:47.075Z,98701.55
2018-10-02T01:27:16.623Z,98699.64
2018-10-02T01:29:46.235Z,98697.98
2018-10-02T01:32:15.780Z,98702.71
2018-10-02T01:34:45.302Z,98701.11
2018-10-02T01:37:14.871Z,98693.11
2018-10-02T01:39:44.439Z,98698.39
2018-10-02T01:42:14.051Z,98697.09
2018-10-02T01:44:43.611Z,98695.48
2018-10-02T01:47:13.133Z,98697.26
2018-10-02T01:49:42.664Z,98691.52
2018-10-02T01:52:12.191Z,98693.79
2018-10-02T01:54:41.727Z,98700.10
2018-10-02T01:57:11.470Z,98698.96
2018-10-02T01:59:40.994Z,98695.97
2018-10-02T02:02:10.498Z,98704.77
2018-10-02T02:04:40.226Z,98711.00
2018-10-02T02:07:09.920Z,98706.55
2018-10-02T02:09:39.656Z,98706.88
2018-10-02T02:12:09.221Z,98715.23
2018-10-02T02:14:38.710Z,98718.75
2018-10-02T02:17:08.259Z,98716.93
2018-10-02T02:19:37.751Z,98720.28
2018-10-02T02:22:07.531Z,98732.14
2018-10-02T02:24:37.064Z,98726.66
2018-10-02T02:27:06.668Z,98729.19
2018-10-02T02:29:36.175Z,98729.27
2018-10-02T02:32:06.056Z,98733.80
2018-10-02T02:34:35.547Z,98736.00
2018-10-02T02:37:05.639Z,98736.99
2018-10-02T02:39:35.200Z,98735.17
2018-10-02T02:42:04.823Z,98736.63
2018-10-02T02:44:34.547Z,98734.49
2018-10-02T02:47:09.394Z,98742.75
2018-10-02T02:49:44.170Z,98743.53
2018-10-02T02:52:14.315Z,98750.02
2018-10-02T02:54:43.860Z,98746.88
2018-10-02T02:57:13.399Z,98749.63
2018-10-02T02:59:43.116Z,98748.48
2018-10-02T03:02:12.656Z,98750.83
2018-10-02T03:04:42.184Z,98749.61
2018-10-02T03:07:11.722Z,98749.08
2018-10-02T03:09:41.247Z,98752.22
2018-10-02T03:12:10.767Z,98748.47
2018-10-02T03:14:40.932Z,98753.73
2018-10-02T03:17:10.470Z,98749.20
2018-10-02T03:19:40.002Z,98760.48
2018-10-02T03:22:09.657Z,98757.38
2018-10-02T03:24:39.213Z,98760.63
2018-10-02T03:27:08.734Z,98763.59
2018-10-02T03:29:38.275Z,98760.63
2018-10-02T03:32:08.679Z,98758.86
2018-10-02T03:34:38.459Z,98764.34
2018-10-02T03:37:08.091Z,98762.28
2018-10-02T03:39:37.828Z,98770.22
2018-10-02T03:42:07.708Z,98764.74
2018-10-02T03:44:37.247Z,98771.16
2018-10-02T03:47:06.900Z,98773.36
2018-10-02T03:49:36.424Z,98774.52
2018-10-02T03:52:06.132Z,98780.26
2018-10-02T03:54:35.655Z,98771.17
2018-10-02T03:57:05.468Z,98771.59
2018-10-02T03:59:34.981Z,98767.09
2018-10-02T04:02:04.556Z,98771.27
2018-10-02T04:04:34.262Z,98773.89
2018-10-02T04:07:03.771Z,98774.31
2018-10-02T04:09:33.295Z,98772.39
2018-10-02T04:12:02.893Z,98768.71
2018-10-02T04:14:32.383Z,98770.55
2018-10-02T04:17:02.066Z,98776.31
2018-10-02T04:19:31.603Z,98770.22
2018-10-02T04:22:01.141Z,98778.97
2018-10-02T04:24:30.875Z,98778.14
2018-10-02T04:27:00.410Z,98786.12
2018-10-02T04:29:30.135Z,98786.66
2018-10-02T04:31:59.646Z,98784.27
2018-10-02T04:34:29.163Z,98783.38
2018-10-02T04:36:58.908Z,98778.33
2018-10-02T04:39:28.707Z,98774.37
2018-10-02T04:41:58.377Z,98777.56
2018-10-02T04:44:27.938Z,98779.96
2018-10-02T04:46:57.440Z,98774.21
2018-10-02T04:49:26.991Z,98766.90
2018-10-02T04:51:56.547Z,98772.08
2018-10-02T04:54:26.089Z,98770.59
2018-10-02T04:56:55.823Z,98777.06
2018-10-02T04:59:25.364Z,98782.14
2018-10-02T05:01:54.871Z,98780.98
2018-10-02T05:04:24.397Z,98793.20
2018-10-02T05:06:53.964Z,98791.73
2018-10-02T05:09:23.755Z,98779.27
2018-10-02T05:11:53.325Z,98779.20
2018-10-02T05:14:23.122Z,98779.35
2018-10-02T05:16:52.635Z,98784.14
2018-10-02T05:19:22.190Z,98787.38
2018-10-02T05:21:52.001Z,98785.88
2018-10-02T05:24:21.543Z,98786.21
2018-10-02T05:26:51.079Z,98792.26
2018-10-02T05:29:20.892Z,98791.72
2018-10-02T05:31:50.452Z,98791.72
2018-10-02T05:34:20.178Z,98791.52
2018-10-02T05:36:49.975Z,98801.39
2018-10-02T05:39:20.021Z,98797.74
2018-10-02T05:41:49.571Z,98801.30
2018-10-02T05:44:19.353Z,98796.19
2018-10-02T05:46:48.887Z,98797.72
2018-10-02T05:49:18.798Z,98792.16
2018-10-02T05:51:48.307Z,98788.64
2018-10-02T05:54:17.812Z,98788.44
2018-10-02T05:56:47.328Z,98793.89
2018-10-02T05:59:16.892Z,98806.80
2018-10-02T06:01:46.476Z,98797.28
2018-10-02T06:04:16.307Z,98793.73
2018-10-02T06:06:45.843Z,98804.73
2018-10-02T06:09:15.407Z,98802.80
2018-10-02T06:11:44.966Z,98805.44
2018-10-02T06:14:14.516Z,98809.62
2018-10-02T06:16:44.332Z,98807.83
2018-10-02T06:19:13.860Z,98810.08
2018-10-02T06:21:43.370Z,98816.55
2018-10-02T06:24:13.187Z,98830.28
2018-10-02T06:26:42.730Z,98827.64
2018-10-02T06:29:12.525Z,98832.17
2018-10-02T06:31:42.044Z,98841.38
2018-10-02T06:34:11.599Z,98844.30
2018-10-02T06:36:41.197Z,98842.94
2018-10-02T06:39:10.866Z,98836.14
2018-10-02T06:41:40.402Z,98825.81
2018-10-02T06:44:09.931Z,98828.19
2018-10-02T06:46:39.509Z,98826.48
2018-10-02T06:49:09.054Z,98825.19
2018-10-02T06:51:39.124Z,98823.45
2018-10-02T06:54:08.855Z,98823.33
2018-10-02T06:56:38.474Z,98822.92
2018-10-02T06:59:08.226Z,98818.77
2018-10-02T07:01:37.767Z,98812.68
2018-10-02T07:04:07.823Z,98811.78
2018-10-02T07:06:37.402Z,98813.33
2018-10-02T07:09:09.577Z,98812.42
2018-10-02T07:11:40.212Z,98825.49
2018-10-02T07:14:10.516Z,98827.17
2018-10-02T07:16:40.204Z,98837.59
2018-10-02T07:19:09.750Z,98851.63
2018-10-02T07:21:39.350Z,98848.16
2018-10-02T07:24:08.911Z,98853.20
2018-10-02T07:26:38.804Z,98850.97
2018-10-02T07:29:08.444Z,98852.31
2018-10-02T07:31:37.995Z,98851.84
2018-10-02T07:34:07.535Z,98844.86
2018-10-02T07:36:37.146Z,98840.41
2018-10-02T07:39:08.723Z,98844.05
2018-10-02T07:41:38.400Z,98845.28
2018-10-02T07:44:08.235Z,98845.78
2018-10-02T07:46:37.808Z,98837.12
2018-10-02T07:49:07.575Z,98840.67
2018-10-02T07:51:37.150Z,98848.88
2018-10-02T07:54:06.879Z,98848.02
2018-10-02T07:56:36.639Z,98841.92
2018-10-02T07:59:06.708Z,98837.20
2018-10-02T08:01:36.239Z,98828.05
2018-10-02T08:04:06.167Z,98829.90
2018-10-02T08:06:35.744Z,98835.32
2018-10-02T08:09:08.708Z,98832.33
2018-10-02T08:11:38.676Z,98837.52
2018-10-02T08:14:08.766Z,98844.16
2018-10-02T08:16:38.946Z,98848.20
2018-10-02T08:19:08.612Z,98851.55
2018-10-02T08:21:38.171Z,98839.98
2018-10-02T08:24:07.743Z,98843.67
2018-10-02T08:26:37.525Z,98839.70
2018-10-02T08:29:07.320Z,98844.66
2018-10-02T08:31:36.872Z,98846.16
2018-10-02T08:34:06.432Z,98839.80
2018-10-02T08:36:36.028Z,98834.70
2018-10-02T08:39:08.708Z,98830.09
2018-10-02T08:41:38.734Z,98831.10
2018-10-02T08:44:08.557Z,98834.59
2018-10-02T08:46:38.102Z,98822.34
2018-10-02T08:49:07.635Z,98818.52
2018-10-02T08:51:37.185Z,98818.58
2018-10-02T08:54:06.787Z,98808.48
2018-10-02T08:56:37.140Z,98815.36
2018-10-02T08:59:07.206Z,98816.95
2018-10-02T09:01:36.976Z,98823.64
2018-10-02T09:04:06.576Z,98828.63
2018-10-02T09:06:36.166Z,98819.27
2018-10-02T09:09:10.856Z,98819.61
2018-10-02T09:11:40.526Z,98829.56
2018-10-02T09:14:10.387Z,98829.52
2018-10-02T09:16:40.385Z,98831.30
2018-10-02T09:19:10.456Z,98824.52
2018-10-02T09:21:40.308Z,98824.64
2018-10-02T09:24:09.949Z,98824.58
2018-10-02T09:26:39.537Z,98831.79
2018-10-02T09:29:09.168Z,98834.19
2018-10-02T09:31:43.843Z,98821.22
2018-10-02T09:34:18.556Z,98812.80
2018-10-02T09:36:53.382Z,98818.77
2018-10-02T09:39:28.820Z,98816.54
2018-10-02T09:42:03.733Z,98815.55
2018-10-02T09:44:33.412Z,98810.88
2018-10-02T09:47:02.967Z,98808.85
2018-10-02T09:49:32.529Z,98810.01
2018-10-02T09:52:02.147Z,98803.70
2018-10-02T09:54:32.269Z,98798.38
2018-10-02T09:57:02.041Z,98805.65
2018-10-02T09:59:31.743Z,98799.98
2018-10-02T10:02:06.852Z,98791.44
2018-10-02T10:04:36.652Z,98797.95
2018-10-02T10:07:06.567Z,98788.07
2018-10-02T10:09:36.117Z,98780.91
2018-10-02T10:12:05.680Z,98795.22
2018-10-02T10:14:35.240Z,98789.76
2018-10-02T10:17:05.095Z,98793.16
2018-10-02T10:19:34.773Z,98789.89
2018-10-02T10:22:04.332Z,98795.09
2018-10-02T10:24:33.922Z,98792.18
2018-10-02T10:27:03.484Z,98784.47
2018-10-02T10:29:33.023Z,98788.02
2018-10-02T10:32:03.105Z,98779.83
2018-10-02T10:34:32.753Z,98783.54
2018-10-02T10:37:02.447Z,98783.92
2018-10-02T10:39:32.179Z,98782.23
2018-10-02T10:42:02.190Z,98786.48
2018-10-02T10:44:31.843Z,98774.96
2018-10-02T10:47:01.405Z,98773.39
2018-10-02T10:49:31.174Z,98771.26
2018-10-02T10:52:07.388Z,98772.56
2018-10-02T10:54:37.103Z,98777.81
2018-10-02T10:57:06.920Z,98771.95
2018-10-02T10:59:36.720Z,98772.61
2018-10-02T11:02:06.302Z,98772.51
2018-10-02T11:04:36.076Z,98772.61
2018-10-02T11:07:05.793Z,98774.23
2018-10-02T11:09:35.599Z,98773.70
2018-10-02T11:12:05.684Z,98778.83
2018-10-02T11:14:35.256Z,98779.02
2018-10-02T11:17:05.095Z,98776.75
2018-10-02T11:19:34.711Z,98768.44
2018-10-02T11:22:04.656Z,98764.95
2018-10-02T11:24:34.306Z,98753.17
2018-10-02T11:27:03.875Z,98743.83
2018-10-02T11:29:33.468Z,98743.00
2018-10-02T11:32:03.155Z,98737.64
2018-10-02T11:34:32.739Z,98744.94
2018-10-02T11:37:02.315Z,98732.25
2018-10-02T11:39:31.900Z,98728.40
2018-10-02T11:42:01.465Z,98723.56
2018-10-02T11:44:31.152Z,98730.13
2018-10-02T11:47:00.857Z,98732.22
2018-10-02T11:49:30.439Z,98727.47
2018-10-02T11:52:00.216Z,98727.05
2018-10-02T11:54:29.782Z,98727.48
2018-10-02T11:56:59.651Z,98723.98
2018-10-02T11:59:29.313Z,98716.23
2018-10-02T12:01:58.861Z,98710.10
2018-10-02T12:04:28.387Z,98714.45
2018-10-02T12:06:58.004Z,98701.88
2018-10-02T12:09:27.578Z,98705.47
2018-10-02T12:11:57.144Z,98705.37
2018-10-02T12:14:26.906Z,98706.30
2018-10-02T12:16:56.791Z,98710.02
2018-10-02T12:19:26.400Z,98702.54
2018-10-02T12:21:56.158Z,98697.27
2018-10-02T12:24:25.723Z,98697.27
2018-10-02T12:26:55.691Z,98697.33
2018-10-02T12:29:25.209Z,98699.19
2018-10-02T12:31:54.749Z,98705.42
2018-10-02T12:34:24.568Z,98692.09
2018-10-02T12:36:54.216Z,98692.10
2018-10-02T12:39:23.870Z,98694.19
2018-10-02T12:41:53.984Z,98689.94
2018-10-02T12:44:23.567Z,98684.92
2018-10-02T12:46:53.201Z,98693.88
2018-10-02T12:49:22.903Z,98681.05
2018-10-02T12:51:52.447Z,98682.14
2018-10-02T12:54:22.204Z,98680.63
2018-10-02T12:56:51.951Z,98673.52
2018-10-02T12:59:21.560Z,98671.59
2018-10-02T13:01:51.207Z,98670.70
2018-10-02T13:04:20.734Z,98667.30
2018-10-02T13:06:50.397Z,98663.62
2018-10-02T13:09:20.087Z,98656.53
2018-10-02T13:11:49.692Z,98658.71
2018-10-02T13:14:19.220Z,98659.91
2018-10-02T13:16:48.811Z,98657.71
2018-10-02T13:19:18.712Z,98648.77
2018-10-02T13:21:48.276Z,98637.41
2018-10-02T13:24:17.816Z,98630.91
2018-10-02T13:26:47.471Z,98633.81
2018-10-02T13:29:23.208Z,98638.23
2018-10-02T13:31:52.772Z,98633.70
2018-10-02T13:34:22.394Z,98622.56
2018-10-02T13:36:52.165Z,98625.06
2018-10-02T13:39:21.724Z,98620.60
2018-10-02T13:41:52.940Z,98626.22
2018-10-02T13:44:22.486Z,98628.84
2018-10-02T13:46:52.055Z,98629.77
2018-10-02T13:49:21.615Z,98632.38
2018-10-02T13:51:51.224Z,98627.59
2018-10-02T13:54:20.780Z,98631.08
2018-10-02T13:56:51.158Z,98629.21
2018-10-02T13:59:20.728Z,98632.39
2018-10-02T14:01:50.296Z,98637.95
2018-10-02T14:04:20.001Z,98632.33
2018-10-02T14:06:49.559Z,98630.84
2018-10-02T14:09:19.155Z,98633.81
2018-10-02T14:11:49.092Z,98640.24
2018-10-02T14:14:18.639Z,98641.45
2018-10-02T14:16:48.427Z,98639.42
2018-10-02T14:19:18.056Z,98638.98
2018-10-02T14:21:47.730Z,98632.94
2018-10-02T14:24:17.295Z,98638.88
2018-10-02T14:26:46.911Z,98636.59
2018-10-02T14:29:16.498Z,98640.30
2018-10-02T14:31:46.067Z,98635.88
2018-10-02T14:34:15.632Z,98631.95
2018-10-02T14:36:45.243Z,98634.95
2018-10-02T14:39:14.931Z,98636.53
2018-10-02T14:41:44.476Z,98642.38
2018-10-02T14:44:14.031Z,98637.91
2018-10-02T14:46:43.616Z,98631.67
2018-10-02T14:49:13.215Z,98635.53
2018-10-02T14:51:42.783Z,98634.33
2018-10-02T14:54:12.393Z,98644.17
2018-10-02T14:56:41.961Z,98642.42
2018-10-02T14:59:11.549Z,98640.70
2018-10-02T15:01:41.248Z,98638.51
2018-10-02T15:04:10.767Z,98623.05
2018-10-02T15:06:40.361Z,98631.96
2018-10-02T15:09:09.964Z,98632.41
2018-10-02T15:11:39.538Z,98635.78
2018-10-02T15:14:09.096Z,98635.89
2018-10-02T15:16:38.680Z,98627.83
2018-10-02T15:19:08.267Z,98636.95
2018-10-02T15:21:37.824Z,98633.49
2018-10-02T15:24:07.485Z,98636.53
2018-10-02T15:26:37.485Z,98624.69
2018-10-02T15:29:07.122Z,98623.83
2018-10-02T15:31:36.890Z,98631.82
2018-10-02T15:34:06.649Z,98640.26
2018-10-02T15:36:36.452Z,98633.23
2018-10-02T15:39:09.000Z,98633.12
2018-10-02T15:41:39.357Z,98641.56
2018-10-02T15:44:09.300Z,98639.12
2018-10-02T15:46:39.118Z,98646.00
2018-10-02T15:49:18.996Z,98641.25
2018-10-02T15:51:49.448Z,98642.88
2018-10-02T15:54:19.024Z,98631.72
2018-10-02T15:56:48.642Z,98635.64
2018-10-02T15:59:18.224Z,98635.75
2018-10-02T16:01:47.792Z,98631.17
2018-10-02T16:04:17.371Z,98639.84
2018-10-02T16:06:47.008Z,98632.92
2018-10-02T16:09:16.560Z,98632.48
2018-10-02T16:11:46.295Z,98632.17
2018-10-02T16:14:16.481Z,98642.09
2018-10-02T16:16:46.694Z,98644.19
2018-10-02T16:19:16.303Z,98638.30
2018-10-02T16:21:45.897Z,98634.50
2018-10-02T16:24:16.346Z,98636.50
2018-10-02T16:26:45.955Z,98640.60
2018-10-02T16:29:15.571Z,98640.39
2018-10-02T16:31:45.197Z,98641.59
2018-10-02T16:34:15.205Z,98639.22
2018-10-02T16:36:44.795Z,98641.01
2018-10-02T16:39:14.411Z,98652.52
2018-10-02T16:41:43.996Z,98652.31
2018-10-02T16:44:13.843Z,98655.66
2018-10-02T16:46:43.542Z,98660.78
2018-10-02T16:49:13.248Z,98667.22
2018-10-02T16:51:42.882Z,98674.52
2018-10-02T16:54:12.467Z,98681.06
2018-10-02T16:56:42.040Z,98682.72
2018-10-02T16:59:11.655Z,98680.75
2018-10-02T17:01:41.208Z,98676.97
2018-10-02T17:04:10.915Z,98682.58
2018-10-02T17:06:40.635Z,98688.16
2018-10-02T17:09:10.257Z,98684.61
2018-10-02T17:11:40.042Z,98680.06
2018-10-02T17:14:09.663Z,98682.09
2018-10-02T17:16:39.285Z,98679.38
2018-10-02T17:19:08.947Z,98681.41
2018-10-02T17:21:38.523Z,98683.72
2018-10-02T17:24:08.100Z,98683.61
2018-10-02T17:26:37.695Z,98685.09
2018-10-02T17:29:07.755Z,98679.48
2018-10-02T17:31:37.369Z,98688.27
2018-10-02T17:34:07.004Z,98693.39
2018-10-02T17:36:36.623Z,98692.95
2018-10-02T17:39:09.816Z,98688.54
2018-10-02T17:41:39.815Z,98696.39
2018-10-02T17:44:09.391Z,98697.02
2018-10-02T17:46:39.004Z,98704.66
2018-10-02T17:49:08.733Z,98694.12
2018-10-02T17:51:38.421Z,98697.84
2018-10-02T17:54:08.140Z,98694.19
2018-10-02T17:56:37.734Z,98708.11
2018-10-02T17:59:07.312Z,98704.66
2018-10-02T18:01:37.340Z,98695.29
2018-10-02T18:04:07.596Z,98693.98
2018-10-02T18:06:37.339Z,98704.34
2018-10-02T18:09:09.024Z,98703.77
2018-10-02T18:11:38.752Z,98698.42
2018-10-02T18:14:08.855Z,98700.01
2018-10-02T18:16:38.756Z,98703.34
2018-10-02T18:19:08.508Z,98703.73
2018-10-02T18:21:38.350Z,98701.34
2018-10-02T18:24:08.128Z,98710.78
2018-10-02T18:26:37.873Z,98708.55
2018-10-02T18:29:07.459Z,98714.02
2018-10-02T18:31:37.307Z,98721.56
2018-10-02T18:34:06.896Z,98720.64
2018-10-02T18:36:36.472Z,98726.15
2018-10-02T18:39:07.551Z,98719.12
2018-10-02T18:41:37.166Z,98729.59
2018-10-02T18:44:06.823Z,98739.25
2018-10-02T18:46:37.000Z,98741.66
2018-10-02T18:49:07.132Z,98746.79
2018-10-02T18:51:36.907Z,98749.96
2018-10-02T18:54:06.548Z,98750.06
2018-10-02T18:56:36.784Z,98751.75
2018-10-02T18:59:07.009Z,98755.31
2018-10-02T19:01:37.320Z,98759.13
2018-10-02T19:04:07.377Z,98764.85
2018-10-02T19:06:37.007Z,98769.71
2018-10-02T19:09:13.686Z,98773.02
2018-10-02T19:11:48.430Z,98769.67
2018-10-02T19:14:19.549Z,98763.23
2018-10-02T19:16:49.256Z,98766.99
2018-10-02T19:19:24.234Z,98778.70
2018-10-02T19:21:54.102Z,98774.87
2018-10-02T19:24:23.769Z,98786.42
2018-10-02T19:26:53.456Z,98787.34
2018-10-02T19:29:23.261Z,98788.28
2018-10-02T19:32:00.672Z,98788.66
2018-10-02T19:34:30.332Z,98786.42
2018-10-02T19:37:00.126Z,98792.86
2018-10-02T19:39:31.460Z,98796.59
2018-10-02T19:42:01.349Z,98792.96
2018-10-02T19:44:30.992Z,98788.83
2018-10-02T19:47:01.951Z,98792.86
2018-10-02T19:49:32.873Z,98794.63
2018-10-02T19:52:07.797Z,98786.77
2018-10-02T19:54:37.402Z,98783.32
2018-10-02T19:57:08.642Z,98788.28
2018-10-02T19:59:38.219Z,98788.76
2018-10-02T20:02:07.995Z,98789.86
2018-10-02T20:04:38.020Z,98797.14
2018-10-02T20:07:07.746Z,98793.11
2018-10-02T20:09:37.555Z,98787.88
2018-10-02T20:12:06.973Z,98782.53
2018-10-02T20:14:36.736Z,98788.14
2018-10-02T20:17:06.757Z,98794.69
2018-10-02T20:19:36.389Z,98797.90
2018-10-02T20:22:08.181Z,98799.93
2018-10-02T20:24:38.009Z,98796.03
2018-10-02T20:27:07.738Z,98802.03
2018-10-02T20:29:37.519Z,98792.17
2018-10-02T20:32:07.192Z,98796.48
2018-10-02T20:34:36.761Z,98794.21
2018-10-02T20:37:06.626Z,98790.28
2018-10-02T20:39:36.471Z,98787.56
2018-10-02T20:42:06.706Z,98785.73
2018-10-02T20:44:36.307Z,98785.42
2018-10-02T20:47:05.958Z,98783.53
2018-10-02T20:49:35.709Z,98782.70
2018-10-02T20:52:05.437Z,98778.19
2018-10-02T20:54:35.047Z,98775.84
2018-10-02T20:57:04.769Z,98773.64
2018-10-02T20:59:34.414Z,98776.98
2018-10-02T21:02:04.086Z,98772.70
2018-10-02T21:04:33.728Z,98779.16
2018-10-02T21:07:03.427Z,98769.78
2018-10-02T21:09:33.160Z,98768.92
2018-10-02T21:12:02.850Z,98763.48
2018-10-02T21:14:32.427Z,98756.00
2018-10-02T21:17:02.027Z,98762.44
2018-10-02T21:19:31.787Z,98756.45
2018-10-02T21:22:01.353Z,98759.65
2018-10-02T21:24:31.042Z,98753.58
2018-10-02T21:27:00.645Z,98754.79
2018-10-02T21:29:30.240Z,98753.41
2018-10-02T21:31:59.818Z,98755.02
2018-10-02T21:34:29.440Z,98759.26
2018-10-02T21:36:59.187Z,98757.50
2018-10-02T21:39:28.744Z,98768.75
2018-10-02T21:41:58.339Z,98775.23
2018-10-02T21:44:27.948Z,98773.58
2018-10-02T21:46:57.589Z,98774.99
2018-10-02T21:49:27.157Z,98773.69
2018-10-02T21:51:56.844Z,98775.32
2018-10-02T21:54:26.464Z,98776.91
2018-10-02T21:56:56.131Z,98773.43
2018-10-02T21:59:25.840Z,98773.43
2018-10-02T22:01:55.405Z,98775.12
2018-10-02T22:04:24.954Z,98781.19
2018-10-02T22:06:54.566Z,98773.23
2018-10-02T22:09:24.131Z,98786.31
2018-10-02T22:11:53.725Z,98778.52
2018-10-02T22:14:23.372Z,98780.02
2018-10-02T22:16:52.956Z,98781.34
2018-10-02T22:19:22.567Z,98776.63
2018-10-02T22:21:52.112Z,98768.90
2018-10-02T22:24:21.670Z,98768.90
2018-10-02T22:26:51.257Z,98766.58
2018-10-02T22:29:20.826Z,98765.07
2018-10-02T22:31:50.403Z,98749.00
2018-10-02T22:34:19.984Z,98749.09
2018-10-02T22:36:49.564Z,98749.00
2018-10-02T22:39:19.157Z,98744.39
2018-10-02T22:41:48.713Z,98750.02
2018-10-02T22:44:18.299Z,98761.91
2018-10-02T22:46:47.891Z,98770.88
2018-10-02T22:49:17.665Z,98770.81
2018-10-02T22:51:47.259Z,98761.78
2018-10-02T22:54:16.822Z,98771.41
2018-10-02T22:56:46.365Z,98773.94
2018-10-02T22:59:16.025Z,98777.51
2018-10-02T23:01:46.032Z,98774.70
2018-10-02T23:04:15.670Z,98775.44
2018-10-02T23:06:45.270Z,98773.94
2018-10-02T23:09:14.856Z,98779.55
2018-10-02T23:11:44.590Z,98777.03
2018-10-02T23:14:14.155Z,98783.37
2018-10-02T23:16:43.696Z,98776.45
2018-10-02T23:19:13.656Z,98776.94
2018-10-02T23:21:43.216Z,98767.30
2018-10-02T23:24:12.804Z,98763.61
2018-10-02T23:26:42.371Z,98759.50
2018-10-02T23:29:11.908Z,98768.55
2018-10-02T23:31:41.704Z,98769.03
2018-10-02T23:34:11.495Z,98764.44
2018-10-02T23:36:41.084Z,98764.98
2018-10-02T23:39:10.979Z,98765.90
2018-10-02T23:41:40.544Z,98770.84
2018-10-02T23:44:10.155Z,98769.72
2018-10-02T23:46:39.727Z,98769.42
2018-10-02T23:49:09.480Z,98776.97
2018-10-02T23:51:39.072Z,98765.39
2018-10-02T23:54:08.784Z,98762.48
2018-10-02T23:56:38.340Z,98767.51
2018-10-02T23:59:07.974Z,98763.30
